sensor_id;sensor_type;location;lat;lon;timestamp;P1;durP1;ratioP1;P2;durP2;ratioP2
15482;SDS011;7843;50.330;7.312;2023-01-28T00:01:27;2.85;;;2.13;;
15482;SDS011;7843;50.330;7.312;2023-01-28T00:03:54;2.60;;;2.00;;
15482;SDS011;7843;50.330;7.312;2023-01-28T00:06:21;4.90;;;2.65;;
15482;SDS011;7843;50.330;7.312;2023-01-28T00:08:47;3.38;;;2.47;;
15482;SDS011;7843;50.330;7.312;2023-01-28T00:11:14;3.63;;;2.50;;
15482;SDS011;7843;50.330;7.312;2023-01-28T00:13:41;3.47;;;2.38;;
15482;SDS011;7843;50.330;7.312;2023-01-28T00:16:08;4.25;;;2.40;;
15482;SDS011;7843;50.330;7.312;2023-01-28T00:18:35;3.50;;;2.30;;
15482;SDS011;7843;50.330;7.312;2023-01-28T00:21:03;3.72;;;2.22;;
15482;SDS011;7843;50.330;7.312;2023-01-28T00:23:33;4.05;;;2.45;;
15482;SDS011;7843;50.330;7.312;2023-01-28T00:26:02;3.33;;;2.28;;
15482;SDS011;7843;50.330;7.312;2023-01-28T00:28:30;3.13;;;2.00;;
15482;SDS011;7843;50.330;7.312;2023-01-28T00:30:57;2.60;;;2.28;;
15482;SDS011;7843;50.330;7.312;2023-01-28T00:33:24;3.55;;;2.25;;
15482;SDS011;7843;50.330;7.312;2023-01-28T00:35:57;3.58;;;2.50;;
15482;SDS011;7843;50.330;7.312;2023-01-28T00:38:25;4.38;;;2.47;;
15482;SDS011;7843;50.330;7.312;2023-01-28T00:40:52;3.72;;;2.38;;
15482;SDS011;7843;50.330;7.312;2023-01-28T00:43:19;3.42;;;2.30;;
15482;SDS011;7843;50.330;7.312;2023-01-28T00:45:46;3.38;;;2.28;;
15482;SDS011;7843;50.330;7.312;2023-01-28T00:48:15;3.58;;;2.33;;
15482;SDS011;7843;50.330;7.312;2023-01-28T00:50:42;4.18;;;2.72;;
15482;SDS011;7843;50.330;7.312;2023-01-28T00:53:10;5.05;;;2.30;;
15482;SDS011;7843;50.330;7.312;2023-01-28T00:55:37;3.40;;;2.50;;
15482;SDS011;7843;50.330;7.312;2023-01-28T00:58:04;3.58;;;2.38;;
15482;SDS011;7843;50.330;7.312;2023-01-28T01:00:30;4.95;;;2.45;;
15482;SDS011;7843;50.330;7.312;2023-01-28T01:02:57;4.03;;;2.15;;
15482;SDS011;7843;50.330;7.312;2023-01-28T01:05:25;3.83;;;2.60;;
15482;SDS011;7843;50.330;7.312;2023-01-28T01:07:51;3.35;;;2.22;;
15482;SDS011;7843;50.330;7.312;2023-01-28T01:10:18;3.00;;;2.58;;
15482;SDS011;7843;50.330;7.312;2023-01-28T01:12:46;3.45;;;2.40;;
15482;SDS011;7843;50.330;7.312;2023-01-28T01:15:14;3.67;;;2.17;;
15482;SDS011;7843;50.330;7.312;2023-01-28T01:17:43;3.35;;;2.40;;
15482;SDS011;7843;50.330;7.312;2023-01-28T01:20:14;3.03;;;2.20;;
15482;SDS011;7843;50.330;7.312;2023-01-28T01:22:45;3.43;;;2.13;;
15482;SDS011;7843;50.330;7.312;2023-01-28T01:25:13;4.33;;;2.63;;
15482;SDS011;7843;50.330;7.312;2023-01-28T01:27:41;3.47;;;2.33;;
15482;SDS011;7843;50.330;7.312;2023-01-28T01:30:08;3.90;;;2.65;;
15482;SDS011;7843;50.330;7.312;2023-01-28T01:32:35;3.80;;;2.20;;
15482;SDS011;7843;50.330;7.312;2023-01-28T01:35:03;4.83;;;2.27;;
15482;SDS011;7843;50.330;7.312;2023-01-28T01:37:34;2.75;;;2.00;;
15482;SDS011;7843;50.330;7.312;2023-01-28T01:40:01;3.70;;;2.40;;
15482;SDS011;7843;50.330;7.312;2023-01-28T01:42:30;3.47;;;2.40;;
15482;SDS011;7843;50.330;7.312;2023-01-28T01:45:05;3.58;;;2.30;;
15482;SDS011;7843;50.330;7.312;2023-01-28T01:50:28;3.88;;;2.17;;
15482;SDS011;7843;50.330;7.312;2023-01-28T01:52:59;3.40;;;2.08;;
15482;SDS011;7843;50.330;7.312;2023-01-28T01:55:33;3.08;;;1.98;;
15482;SDS011;7843;50.330;7.312;2023-01-28T01:58:05;3.45;;;2.33;;
15482;SDS011;7843;50.330;7.312;2023-01-28T02:00:34;3.85;;;2.35;;
15482;SDS011;7843;50.330;7.312;2023-01-28T02:03:01;3.55;;;2.50;;
15482;SDS011;7843;50.330;7.312;2023-01-28T02:05:28;4.45;;;3.00;;
15482;SDS011;7843;50.330;7.312;2023-01-28T02:07:56;4.32;;;2.72;;
15482;SDS011;7843;50.330;7.312;2023-01-28T02:10:45;3.22;;;2.13;;
15482;SDS011;7843;50.330;7.312;2023-01-28T02:13:14;3.58;;;2.50;;
15482;SDS011;7843;50.330;7.312;2023-01-28T02:15:42;3.70;;;2.65;;
15482;SDS011;7843;50.330;7.312;2023-01-28T02:18:11;3.30;;;2.47;;
15482;SDS011;7843;50.330;7.312;2023-01-28T02:26:15;5.20;;;2.55;;
15482;SDS011;7843;50.330;7.312;2023-01-28T02:31:47;3.92;;;2.85;;
15482;SDS011;7843;50.330;7.312;2023-01-28T02:34:38;5.03;;;3.58;;
15482;SDS011;7843;50.330;7.312;2023-01-28T02:37:14;5.17;;;3.17;;
15482;SDS011;7843;50.330;7.312;2023-01-28T02:39:47;3.65;;;2.40;;
15482;SDS011;7843;50.330;7.312;2023-01-28T02:42:18;4.18;;;2.90;;
15482;SDS011;7843;50.330;7.312;2023-01-28T02:44:50;5.07;;;2.63;;
15482;SDS011;7843;50.330;7.312;2023-01-28T02:47:16;4.25;;;2.63;;
15482;SDS011;7843;50.330;7.312;2023-01-28T02:50:04;4.45;;;2.97;;
15482;SDS011;7843;50.330;7.312;2023-01-28T02:58:45;4.00;;;2.70;;
15482;SDS011;7843;50.330;7.312;2023-01-28T03:01:29;4.65;;;2.72;;
15482;SDS011;7843;50.330;7.312;2023-01-28T03:04:07;5.00;;;3.17;;
15482;SDS011;7843;50.330;7.312;2023-01-28T03:06:47;4.03;;;2.80;;
15482;SDS011;7843;50.330;7.312;2023-01-28T03:09:18;4.43;;;2.72;;
15482;SDS011;7843;50.330;7.312;2023-01-28T03:11:54;4.20;;;2.95;;
15482;SDS011;7843;50.330;7.312;2023-01-28T03:14:47;4.53;;;3.33;;
15482;SDS011;7843;50.330;7.312;2023-01-28T03:20:27;3.95;;;2.47;;
15482;SDS011;7843;50.330;7.312;2023-01-28T03:23:21;4.32;;;2.60;;
15482;SDS011;7843;50.330;7.312;2023-01-28T03:26:11;6.13;;;2.70;;
15482;SDS011;7843;50.330;7.312;2023-01-28T03:29:01;3.03;;;2.05;;
15482;SDS011;7843;50.330;7.312;2023-01-28T03:31:51;3.95;;;2.80;;
15482;SDS011;7843;50.330;7.312;2023-01-28T03:34:38;3.90;;;2.40;;
15482;SDS011;7843;50.330;7.312;2023-01-28T03:37:24;5.33;;;2.70;;
15482;SDS011;7843;50.330;7.312;2023-01-28T03:39:53;3.78;;;2.83;;
15482;SDS011;7843;50.330;7.312;2023-01-28T03:42:23;4.95;;;2.90;;
15482;SDS011;7843;50.330;7.312;2023-01-28T03:44:49;4.60;;;2.30;;
15482;SDS011;7843;50.330;7.312;2023-01-28T03:47:20;3.83;;;2.67;;
15482;SDS011;7843;50.330;7.312;2023-01-28T03:49:50;4.38;;;2.85;;
15482;SDS011;7843;50.330;7.312;2023-01-28T03:52:28;4.95;;;2.70;;
15482;SDS011;7843;50.330;7.312;2023-01-28T03:54:57;4.53;;;2.67;;
15482;SDS011;7843;50.330;7.312;2023-01-28T03:57:24;6.47;;;3.40;;
15482;SDS011;7843;50.330;7.312;2023-01-28T03:59:53;4.70;;;3.03;;
15482;SDS011;7843;50.330;7.312;2023-01-28T04:02:20;4.00;;;3.03;;
15482;SDS011;7843;50.330;7.312;2023-01-28T04:04:48;4.27;;;3.10;;
15482;SDS011;7843;50.330;7.312;2023-01-28T04:07:15;5.07;;;2.97;;
15482;SDS011;7843;50.330;7.312;2023-01-28T04:09:42;4.53;;;2.90;;
15482;SDS011;7843;50.330;7.312;2023-01-28T04:12:09;4.25;;;2.97;;
15482;SDS011;7843;50.330;7.312;2023-01-28T04:14:36;4.22;;;2.97;;
15482;SDS011;7843;50.330;7.312;2023-01-28T04:17:05;5.10;;;3.33;;
15482;SDS011;7843;50.330;7.312;2023-01-28T04:19:32;6.90;;;3.40;;
15482;SDS011;7843;50.330;7.312;2023-01-28T04:22:05;4.73;;;3.03;;
15482;SDS011;7843;50.330;7.312;2023-01-28T04:24:34;6.13;;;3.70;;
15482;SDS011;7843;50.330;7.312;2023-01-28T04:27:01;5.80;;;3.55;;
15482;SDS011;7843;50.330;7.312;2023-01-28T04:29:28;5.77;;;3.63;;
15482;SDS011;7843;50.330;7.312;2023-01-28T04:31:54;5.20;;;3.00;;
15482;SDS011;7843;50.330;7.312;2023-01-28T04:34:21;4.03;;;2.90;;
15482;SDS011;7843;50.330;7.312;2023-01-28T04:36:48;4.18;;;2.92;;
15482;SDS011;7843;50.330;7.312;2023-01-28T04:39:15;7.28;;;3.80;;
15482;SDS011;7843;50.330;7.312;2023-01-28T04:41:42;6.63;;;3.45;;
15482;SDS011;7843;50.330;7.312;2023-01-28T04:44:08;6.30;;;4.00;;
15482;SDS011;7843;50.330;7.312;2023-01-28T04:46:35;7.75;;;4.18;;
15482;SDS011;7843;50.330;7.312;2023-01-28T04:49:02;5.05;;;3.03;;
15482;SDS011;7843;50.330;7.312;2023-01-28T04:51:29;5.40;;;3.30;;
15482;SDS011;7843;50.330;7.312;2023-01-28T04:53:55;5.90;;;3.80;;
15482;SDS011;7843;50.330;7.312;2023-01-28T04:56:22;6.85;;;4.07;;
15482;SDS011;7843;50.330;7.312;2023-01-28T04:58:49;6.47;;;4.28;;
15482;SDS011;7843;50.330;7.312;2023-01-28T05:01:15;5.82;;;3.53;;
15482;SDS011;7843;50.330;7.312;2023-01-28T05:03:42;6.53;;;3.75;;
15482;SDS011;7843;50.330;7.312;2023-01-28T05:06:09;4.80;;;3.13;;
15482;SDS011;7843;50.330;7.312;2023-01-28T05:08:35;6.07;;;3.75;;
15482;SDS011;7843;50.330;7.312;2023-01-28T05:11:02;7.22;;;3.80;;
15482;SDS011;7843;50.330;7.312;2023-01-28T05:13:29;6.68;;;3.53;;
15482;SDS011;7843;50.330;7.312;2023-01-28T05:15:55;6.25;;;4.10;;
15482;SDS011;7843;50.330;7.312;2023-01-28T05:18:22;5.60;;;3.80;;
15482;SDS011;7843;50.330;7.312;2023-01-28T05:20:49;5.88;;;3.50;;
15482;SDS011;7843;50.330;7.312;2023-01-28T05:23:15;5.80;;;3.40;;
15482;SDS011;7843;50.330;7.312;2023-01-28T05:25:42;5.35;;;3.83;;
15482;SDS011;7843;50.330;7.312;2023-01-28T05:28:08;5.72;;;3.60;;
15482;SDS011;7843;50.330;7.312;2023-01-28T05:30:36;7.38;;;3.67;;
15482;SDS011;7843;50.330;7.312;2023-01-28T05:33:03;6.30;;;3.97;;
15482;SDS011;7843;50.330;7.312;2023-01-28T05:35:30;6.72;;;4.00;;
15482;SDS011;7843;50.330;7.312;2023-01-28T05:37:57;5.70;;;3.92;;
15482;SDS011;7843;50.330;7.312;2023-01-28T05:40:24;5.25;;;3.35;;
15482;SDS011;7843;50.330;7.312;2023-01-28T05:42:50;5.22;;;3.53;;
15482;SDS011;7843;50.330;7.312;2023-01-28T05:45:17;6.10;;;4.03;;
15482;SDS011;7843;50.330;7.312;2023-01-28T05:47:44;4.85;;;3.72;;
15482;SDS011;7843;50.330;7.312;2023-01-28T05:50:12;4.38;;;3.15;;
15482;SDS011;7843;50.330;7.312;2023-01-28T05:52:39;8.37;;;3.90;;
15482;SDS011;7843;50.330;7.312;2023-01-28T05:55:06;6.70;;;3.83;;
15482;SDS011;7843;50.330;7.312;2023-01-28T05:57:33;6.20;;;3.75;;
15482;SDS011;7843;50.330;7.312;2023-01-28T06:00:00;7.32;;;3.53;;
15482;SDS011;7843;50.330;7.312;2023-01-28T06:02:27;6.40;;;3.60;;
15482;SDS011;7843;50.330;7.312;2023-01-28T06:04:53;5.35;;;3.53;;
15482;SDS011;7843;50.330;7.312;2023-01-28T06:07:20;6.93;;;3.50;;
15482;SDS011;7843;50.330;7.312;2023-01-28T06:09:47;5.88;;;4.00;;
15482;SDS011;7843;50.330;7.312;2023-01-28T06:12:13;6.05;;;3.70;;
15482;SDS011;7843;50.330;7.312;2023-01-28T06:14:41;5.93;;;3.43;;
15482;SDS011;7843;50.330;7.312;2023-01-28T06:17:07;7.87;;;4.37;;
15482;SDS011;7843;50.330;7.312;2023-01-28T06:19:34;5.67;;;3.23;;
15482;SDS011;7843;50.330;7.312;2023-01-28T06:22:01;5.50;;;3.47;;
15482;SDS011;7843;50.330;7.312;2023-01-28T06:24:27;6.78;;;3.53;;
15482;SDS011;7843;50.330;7.312;2023-01-28T06:26:54;5.43;;;3.47;;
15482;SDS011;7843;50.330;7.312;2023-01-28T06:29:21;4.75;;;3.58;;
15482;SDS011;7843;50.330;7.312;2023-01-28T06:31:48;4.93;;;3.60;;
15482;SDS011;7843;50.330;7.312;2023-01-28T06:34:16;6.88;;;3.78;;
15482;SDS011;7843;50.330;7.312;2023-01-28T06:36:43;5.95;;;3.25;;
15482;SDS011;7843;50.330;7.312;2023-01-28T06:39:10;6.18;;;3.58;;
15482;SDS011;7843;50.330;7.312;2023-01-28T06:41:37;5.63;;;3.33;;
15482;SDS011;7843;50.330;7.312;2023-01-28T06:44:03;5.82;;;3.60;;
15482;SDS011;7843;50.330;7.312;2023-01-28T06:46:30;5.32;;;3.22;;
15482;SDS011;7843;50.330;7.312;2023-01-28T06:48:57;5.97;;;3.50;;
15482;SDS011;7843;50.330;7.312;2023-01-28T06:51:24;4.72;;;3.03;;
15482;SDS011;7843;50.330;7.312;2023-01-28T06:53:50;4.20;;;2.92;;
15482;SDS011;7843;50.330;7.312;2023-01-28T06:56:17;6.13;;;3.17;;
15482;SDS011;7843;50.330;7.312;2023-01-28T06:58:43;7.13;;;4.18;;
15482;SDS011;7843;50.330;7.312;2023-01-28T07:01:10;4.93;;;3.55;;
15482;SDS011;7843;50.330;7.312;2023-01-28T07:03:37;7.32;;;3.60;;
15482;SDS011;7843;50.330;7.312;2023-01-28T07:06:03;6.38;;;3.25;;
15482;SDS011;7843;50.330;7.312;2023-01-28T07:08:30;4.82;;;3.38;;
15482;SDS011;7843;50.330;7.312;2023-01-28T07:10:58;6.00;;;3.95;;
15482;SDS011;7843;50.330;7.312;2023-01-28T07:13:25;6.90;;;3.88;;
15482;SDS011;7843;50.330;7.312;2023-01-28T07:15:52;6.00;;;3.80;;
15482;SDS011;7843;50.330;7.312;2023-01-28T07:18:18;5.47;;;3.67;;
15482;SDS011;7843;50.330;7.312;2023-01-28T07:20:45;5.43;;;3.35;;
15482;SDS011;7843;50.330;7.312;2023-01-28T07:23:12;5.60;;;3.78;;
15482;SDS011;7843;50.330;7.312;2023-01-28T07:25:38;6.57;;;4.03;;
15482;SDS011;7843;50.330;7.312;2023-01-28T07:28:05;6.15;;;3.45;;
15482;SDS011;7843;50.330;7.312;2023-01-28T07:30:32;6.35;;;4.32;;
15482;SDS011;7843;50.330;7.312;2023-01-28T07:32:59;6.88;;;3.75;;
15482;SDS011;7843;50.330;7.312;2023-01-28T07:35:26;6.60;;;3.93;;
15482;SDS011;7843;50.330;7.312;2023-01-28T07:37:54;5.55;;;3.22;;
15482;SDS011;7843;50.330;7.312;2023-01-28T07:40:22;10.67;;;5.43;;
15482;SDS011;7843;50.330;7.312;2023-01-28T07:42:50;10.65;;;4.90;;
15482;SDS011;7843;50.330;7.312;2023-01-28T07:45:17;5.43;;;3.45;;
15482;SDS011;7843;50.330;7.312;2023-01-28T07:47:44;5.00;;;3.42;;
15482;SDS011;7843;50.330;7.312;2023-01-28T07:50:18;5.93;;;3.67;;
15482;SDS011;7843;50.330;7.312;2023-01-28T07:52:44;8.43;;;3.97;;
15482;SDS011;7843;50.330;7.312;2023-01-28T07:55:11;6.68;;;3.90;;
15482;SDS011;7843;50.330;7.312;2023-01-28T07:57:55;5.75;;;3.80;;
15482;SDS011;7843;50.330;7.312;2023-01-28T08:00:23;5.22;;;3.45;;
15482;SDS011;7843;50.330;7.312;2023-01-28T08:02:55;5.43;;;3.53;;
15482;SDS011;7843;50.330;7.312;2023-01-28T08:05:23;7.72;;;3.75;;
15482;SDS011;7843;50.330;7.312;2023-01-28T08:07:52;5.47;;;3.40;;
15482;SDS011;7843;50.330;7.312;2023-01-28T08:10:19;7.37;;;4.30;;
15482;SDS011;7843;50.330;7.312;2023-01-28T08:12:55;6.70;;;4.03;;
15482;SDS011;7843;50.330;7.312;2023-01-28T08:15:27;7.38;;;4.72;;
15482;SDS011;7843;50.330;7.312;2023-01-28T08:17:55;5.72;;;3.67;;
15482;SDS011;7843;50.330;7.312;2023-01-28T08:20:23;5.85;;;3.55;;
15482;SDS011;7843;50.330;7.312;2023-01-28T08:22:51;6.03;;;3.33;;
15482;SDS011;7843;50.330;7.312;2023-01-28T08:25:18;5.85;;;3.38;;
15482;SDS011;7843;50.330;7.312;2023-01-28T08:27:45;7.63;;;4.20;;
15482;SDS011;7843;50.330;7.312;2023-01-28T08:30:12;5.53;;;3.10;;
15482;SDS011;7843;50.330;7.312;2023-01-28T08:32:39;9.20;;;4.13;;
15482;SDS011;7843;50.330;7.312;2023-01-28T08:35:06;4.68;;;3.40;;
15482;SDS011;7843;50.330;7.312;2023-01-28T08:37:33;5.70;;;3.58;;
15482;SDS011;7843;50.330;7.312;2023-01-28T08:39:59;5.70;;;3.88;;
15482;SDS011;7843;50.330;7.312;2023-01-28T08:42:26;6.03;;;3.60;;
15482;SDS011;7843;50.330;7.312;2023-01-28T08:44:53;5.78;;;3.63;;
15482;SDS011;7843;50.330;7.312;2023-01-28T08:47:19;5.47;;;3.63;;
15482;SDS011;7843;50.330;7.312;2023-01-28T08:49:46;6.22;;;3.20;;
15482;SDS011;7843;50.330;7.312;2023-01-28T08:52:13;6.00;;;3.65;;
15482;SDS011;7843;50.330;7.312;2023-01-28T08:54:39;5.37;;;3.63;;
15482;SDS011;7843;50.330;7.312;2023-01-28T08:57:06;4.87;;;3.10;;
15482;SDS011;7843;50.330;7.312;2023-01-28T08:59:32;5.63;;;3.63;;
15482;SDS011;7843;50.330;7.312;2023-01-28T09:01:59;4.75;;;2.90;;
15482;SDS011;7843;50.330;7.312;2023-01-28T09:04:26;4.78;;;3.20;;
15482;SDS011;7843;50.330;7.312;2023-01-28T09:06:52;4.60;;;3.30;;
15482;SDS011;7843;50.330;7.312;2023-01-28T09:09:19;3.90;;;3.00;;
15482;SDS011;7843;50.330;7.312;2023-01-28T09:11:46;5.70;;;2.87;;
15482;SDS011;7843;50.330;7.312;2023-01-28T09:14:13;6.37;;;3.20;;
15482;SDS011;7843;50.330;7.312;2023-01-28T09:16:40;5.03;;;3.10;;
15482;SDS011;7843;50.330;7.312;2023-01-28T09:19:06;5.13;;;3.00;;
15482;SDS011;7843;50.330;7.312;2023-01-28T09:21:33;4.93;;;3.10;;
15482;SDS011;7843;50.330;7.312;2023-01-28T09:23:59;4.90;;;2.90;;
15482;SDS011;7843;50.330;7.312;2023-01-28T09:26:26;4.17;;;2.53;;
15482;SDS011;7843;50.330;7.312;2023-01-28T09:28:53;5.23;;;3.07;;
15482;SDS011;7843;50.330;7.312;2023-01-28T09:31:19;3.57;;;2.80;;
15482;SDS011;7843;50.330;7.312;2023-01-28T09:33:46;4.78;;;3.03;;
15482;SDS011;7843;50.330;7.312;2023-01-28T09:36:19;4.78;;;2.90;;
15482;SDS011;7843;50.330;7.312;2023-01-28T09:38:46;4.38;;;2.65;;
15482;SDS011;7843;50.330;7.312;2023-01-28T09:41:22;4.78;;;2.85;;
15482;SDS011;7843;50.330;7.312;2023-01-28T09:46:31;6.97;;;3.97;;
15482;SDS011;7843;50.330;7.312;2023-01-28T09:48:59;5.28;;;2.97;;
15482;SDS011;7843;50.330;7.312;2023-01-28T09:54:12;4.88;;;2.65;;
15482;SDS011;7843;50.330;7.312;2023-01-28T09:56:41;6.70;;;3.10;;
15482;SDS011;7843;50.330;7.312;2023-01-28T09:59:16;3.55;;;2.67;;
15482;SDS011;7843;50.330;7.312;2023-01-28T10:01:46;4.28;;;2.83;;
15482;SDS011;7843;50.330;7.312;2023-01-28T10:07:31;3.90;;;2.78;;
15482;SDS011;7843;50.330;7.312;2023-01-28T10:12:54;6.85;;;2.88;;
15482;SDS011;7843;50.330;7.312;2023-01-28T10:15:32;4.00;;;2.58;;
15482;SDS011;7843;50.330;7.312;2023-01-28T10:18:07;4.18;;;1.90;;
15482;SDS011;7843;50.330;7.312;2023-01-28T10:20:43;4.68;;;2.78;;
15482;SDS011;7843;50.330;7.312;2023-01-28T10:23:24;3.67;;;2.30;;
15482;SDS011;7843;50.330;7.312;2023-01-28T10:25:57;4.65;;;2.42;;
15482;SDS011;7843;50.330;7.312;2023-01-28T10:28:28;4.43;;;2.47;;
15482;SDS011;7843;50.330;7.312;2023-01-28T10:30:55;3.08;;;2.28;;
15482;SDS011;7843;50.330;7.312;2023-01-28T10:33:27;2.80;;;2.03;;
15482;SDS011;7843;50.330;7.312;2023-01-28T10:36:01;2.80;;;2.13;;
15482;SDS011;7843;50.330;7.312;2023-01-28T10:38:29;3.03;;;1.90;;
15482;SDS011;7843;50.330;7.312;2023-01-28T10:40:57;3.28;;;1.73;;
15482;SDS011;7843;50.330;7.312;2023-01-28T10:43:32;1.95;;;1.30;;
15482;SDS011;7843;50.330;7.312;2023-01-28T10:48:41;1.70;;;1.30;;
15482;SDS011;7843;50.330;7.312;2023-01-28T10:51:11;1.90;;;1.65;;
15482;SDS011;7843;50.330;7.312;2023-01-28T10:53:41;2.08;;;1.45;;
15482;SDS011;7843;50.330;7.312;2023-01-28T10:56:13;1.60;;;1.23;;
15482;SDS011;7843;50.330;7.312;2023-01-28T10:58:49;1.67;;;1.25;;
15482;SDS011;7843;50.330;7.312;2023-01-28T11:02:29;2.20;;;1.50;;
15482;SDS011;7843;50.330;7.312;2023-01-28T11:04:30;1.95;;;1.40;;
15482;SDS011;7843;50.330;7.312;2023-01-28T11:07:20;2.27;;;1.40;;
15482;SDS011;7843;50.330;7.312;2023-01-28T11:09:48;2.70;;;2.23;;
15482;SDS011;7843;50.330;7.312;2023-01-28T11:15:04;10.60;;;5.47;;
15482;SDS011;7843;50.330;7.312;2023-01-28T11:17:34;8.38;;;3.80;;
15482;SDS011;7843;50.330;7.312;2023-01-28T11:20:11;4.25;;;2.40;;
15482;SDS011;7843;50.330;7.312;2023-01-28T11:22:44;2.13;;;1.73;;
15482;SDS011;7843;50.330;7.312;2023-01-28T11:25:15;3.85;;;2.53;;
15482;SDS011;7843;50.330;7.312;2023-01-28T11:27:57;2.85;;;2.15;;
15482;SDS011;7843;50.330;7.312;2023-01-28T11:30:28;3.97;;;2.65;;
15482;SDS011;7843;50.330;7.312;2023-01-28T11:35:40;4.15;;;1.80;;
15482;SDS011;7843;50.330;7.312;2023-01-28T11:38:17;4.03;;;2.38;;
15482;SDS011;7843;50.330;7.312;2023-01-28T11:40:52;2.25;;;1.63;;
15482;SDS011;7843;50.330;7.312;2023-01-28T11:43:21;3.22;;;1.83;;
15482;SDS011;7843;50.330;7.312;2023-01-28T11:48:49;3.25;;;2.33;;
15482;SDS011;7843;50.330;7.312;2023-01-28T11:57:32;3.30;;;2.28;;
15482;SDS011;7843;50.330;7.312;2023-01-28T12:00:33;2.70;;;2.00;;
15482;SDS011;7843;50.330;7.312;2023-01-28T12:03:22;3.37;;;2.30;;
15482;SDS011;7843;50.330;7.312;2023-01-28T12:14:58;3.45;;;2.50;;
15482;SDS011;7843;50.330;7.312;2023-01-28T12:23:12;3.60;;;2.20;;
15482;SDS011;7843;50.330;7.312;2023-01-28T12:34:17;3.47;;;2.07;;
15482;SDS011;7843;50.330;7.312;2023-01-28T12:40:03;2.90;;;2.10;;
15482;SDS011;7843;50.330;7.312;2023-01-28T12:42:41;2.38;;;1.70;;
15482;SDS011;7843;50.330;7.312;2023-01-28T12:45:26;2.60;;;1.77;;
15482;SDS011;7843;50.330;7.312;2023-01-28T12:48:08;2.45;;;1.90;;
15482;SDS011;7843;50.330;7.312;2023-01-28T12:50:59;2.85;;;2.30;;
15482;SDS011;7843;50.330;7.312;2023-01-28T12:56:17;3.33;;;2.50;;
15482;SDS011;7843;50.330;7.312;2023-01-28T13:01:29;3.65;;;2.45;;
15482;SDS011;7843;50.330;7.312;2023-01-28T13:06:36;3.65;;;2.60;;
15482;SDS011;7843;50.330;7.312;2023-01-28T13:09:14;3.37;;;2.80;;
15482;SDS011;7843;50.330;7.312;2023-01-28T13:11:44;3.90;;;2.80;;
15482;SDS011;7843;50.330;7.312;2023-01-28T13:14:13;2.85;;;2.40;;
15482;SDS011;7843;50.330;7.312;2023-01-28T13:16:41;3.20;;;2.75;;
15482;SDS011;7843;50.330;7.312;2023-01-28T13:21:44;4.60;;;2.70;;
15482;SDS011;7843;50.330;7.312;2023-01-28T13:31:52;3.90;;;2.72;;
15482;SDS011;7843;50.330;7.312;2023-01-28T13:36:55;4.97;;;2.92;;
15482;SDS011;7843;50.330;7.312;2023-01-28T13:39:24;4.38;;;3.00;;
15482;SDS011;7843;50.330;7.312;2023-01-28T13:42:07;5.72;;;3.50;;
15482;SDS011;7843;50.330;7.312;2023-01-28T13:44:37;4.88;;;3.25;;
15482;SDS011;7843;50.330;7.312;2023-01-28T13:49:38;4.85;;;3.50;;
15482;SDS011;7843;50.330;7.312;2023-01-28T13:54:37;7.20;;;3.50;;
15482;SDS011;7843;50.330;7.312;2023-01-28T13:57:29;8.45;;;5.72;;
15482;SDS011;7843;50.330;7.312;2023-01-28T14:00:18;14.25;;;8.45;;
15482;SDS011;7843;50.330;7.312;2023-01-28T14:03:19;7.45;;;4.05;;
15482;SDS011;7843;50.330;7.312;2023-01-28T14:06:21;5.15;;;3.47;;
15482;SDS011;7843;50.330;7.312;2023-01-28T14:18:13;4.57;;;3.13;;
15482;SDS011;7843;50.330;7.312;2023-01-28T14:20:47;4.43;;;2.92;;
15482;SDS011;7843;50.330;7.312;2023-01-28T14:23:15;6.95;;;3.47;;
15482;SDS011;7843;50.330;7.312;2023-01-28T14:31:31;5.85;;;3.35;;
15482;SDS011;7843;50.330;7.312;2023-01-28T14:34:11;3.92;;;2.60;;
15482;SDS011;7843;50.330;7.312;2023-01-28T14:36:44;4.20;;;2.83;;
15482;SDS011;7843;50.330;7.312;2023-01-28T14:39:23;3.67;;;3.00;;
15482;SDS011;7843;50.330;7.312;2023-01-28T14:41:57;4.25;;;2.78;;
15482;SDS011;7843;50.330;7.312;2023-01-28T14:44:30;2.83;;;2.22;;
15482;SDS011;7843;50.330;7.312;2023-01-28T14:47:23;3.42;;;2.58;;
15482;SDS011;7843;50.330;7.312;2023-01-28T14:53:15;10.48;;;5.00;;
15482;SDS011;7843;50.330;7.312;2023-01-28T14:55:55;17.97;;;9.87;;
15482;SDS011;7843;50.330;7.312;2023-01-28T14:58:33;9.02;;;4.85;;
15482;SDS011;7843;50.330;7.312;2023-01-28T15:01:16;84.07;;;31.45;;
15482;SDS011;7843;50.330;7.312;2023-01-28T15:03:46;83.80;;;33.38;;
15482;SDS011;7843;50.330;7.312;2023-01-28T15:06:14;40.35;;;17.20;;
15482;SDS011;7843;50.330;7.312;2023-01-28T15:08:43;11.98;;;5.45;;
15482;SDS011;7843;50.330;7.312;2023-01-28T15:11:10;4.07;;;3.10;;
15482;SDS011;7843;50.330;7.312;2023-01-28T15:13:42;4.28;;;2.95;;
15482;SDS011;7843;50.330;7.312;2023-01-28T15:16:15;4.63;;;2.53;;
15482;SDS011;7843;50.330;7.312;2023-01-28T15:18:45;3.50;;;2.83;;
15482;SDS011;7843;50.330;7.312;2023-01-28T15:21:13;4.22;;;2.90;;
15482;SDS011;7843;50.330;7.312;2023-01-28T15:23:46;3.88;;;2.97;;
15482;SDS011;7843;50.330;7.312;2023-01-28T15:26:20;3.65;;;2.88;;
15482;SDS011;7843;50.330;7.312;2023-01-28T15:28:49;2.80;;;2.40;;
15482;SDS011;7843;50.330;7.312;2023-01-28T15:31:21;5.35;;;3.03;;
15482;SDS011;7843;50.330;7.312;2023-01-28T15:33:55;3.60;;;2.90;;
15482;SDS011;7843;50.330;7.312;2023-01-28T15:36:25;3.30;;;2.95;;
15482;SDS011;7843;50.330;7.312;2023-01-28T15:38:56;4.28;;;2.70;;
15482;SDS011;7843;50.330;7.312;2023-01-28T15:41:26;16.92;;;7.78;;
15482;SDS011;7843;50.330;7.312;2023-01-28T15:43:57;14.53;;;7.87;;
15482;SDS011;7843;50.330;7.312;2023-01-28T15:46:24;19.70;;;9.30;;
15482;SDS011;7843;50.330;7.312;2023-01-28T15:48:56;18.65;;;10.18;;
15482;SDS011;7843;50.330;7.312;2023-01-28T15:51:26;9.20;;;5.17;;
15482;SDS011;7843;50.330;7.312;2023-01-28T15:54:02;5.15;;;3.38;;
15482;SDS011;7843;50.330;7.312;2023-01-28T15:56:34;5.20;;;3.87;;
15482;SDS011;7843;50.330;7.312;2023-01-28T15:59:08;4.93;;;3.03;;
15482;SDS011;7843;50.330;7.312;2023-01-28T16:01:35;4.85;;;3.60;;
15482;SDS011;7843;50.330;7.312;2023-01-28T16:04:03;4.18;;;2.95;;
15482;SDS011;7843;50.330;7.312;2023-01-28T16:06:33;5.00;;;3.72;;
15482;SDS011;7843;50.330;7.312;2023-01-28T16:09:08;4.55;;;3.42;;
15482;SDS011;7843;50.330;7.312;2023-01-28T16:11:45;4.40;;;3.13;;
15482;SDS011;7843;50.330;7.312;2023-01-28T16:14:24;4.43;;;2.83;;
15482;SDS011;7843;50.330;7.312;2023-01-28T16:16:54;4.55;;;3.08;;
15482;SDS011;7843;50.330;7.312;2023-01-28T16:19:36;6.15;;;3.55;;
15482;SDS011;7843;50.330;7.312;2023-01-28T16:22:06;6.45;;;3.97;;
15482;SDS011;7843;50.330;7.312;2023-01-28T16:24:34;4.93;;;3.50;;
15482;SDS011;7843;50.330;7.312;2023-01-28T16:27:02;4.78;;;3.90;;
15482;SDS011;7843;50.330;7.312;2023-01-28T16:29:44;5.57;;;4.15;;
15482;SDS011;7843;50.330;7.312;2023-01-28T16:32:27;3.75;;;3.20;;
15482;SDS011;7843;50.330;7.312;2023-01-28T16:34:59;5.32;;;3.60;;
15482;SDS011;7843;50.330;7.312;2023-01-28T16:37:26;5.05;;;3.33;;
15482;SDS011;7843;50.330;7.312;2023-01-28T16:39:52;5.88;;;3.30;;
15482;SDS011;7843;50.330;7.312;2023-01-28T16:42:19;4.75;;;3.13;;
15482;SDS011;7843;50.330;7.312;2023-01-28T16:44:46;6.18;;;3.67;;
15482;SDS011;7843;50.330;7.312;2023-01-28T16:47:12;6.03;;;3.85;;
15482;SDS011;7843;50.330;7.312;2023-01-28T16:49:39;5.78;;;3.55;;
15482;SDS011;7843;50.330;7.312;2023-01-28T16:52:06;6.13;;;3.67;;
15482;SDS011;7843;50.330;7.312;2023-01-28T16:54:32;7.03;;;4.43;;
15482;SDS011;7843;50.330;7.312;2023-01-28T16:56:59;6.43;;;4.20;;
15482;SDS011;7843;50.330;7.312;2023-01-28T16:59:26;8.40;;;5.00;;
15482;SDS011;7843;50.330;7.312;2023-01-28T17:01:53;7.03;;;4.70;;
15482;SDS011;7843;50.330;7.312;2023-01-28T17:04:19;8.20;;;4.72;;
15482;SDS011;7843;50.330;7.312;2023-01-28T17:06:46;7.80;;;4.25;;
15482;SDS011;7843;50.330;7.312;2023-01-28T17:09:13;7.18;;;3.45;;
15482;SDS011;7843;50.330;7.312;2023-01-28T17:11:40;5.23;;;3.50;;
15482;SDS011;7843;50.330;7.312;2023-01-28T17:14:07;5.68;;;3.55;;
15482;SDS011;7843;50.330;7.312;2023-01-28T17:16:35;8.27;;;4.38;;
15482;SDS011;7843;50.330;7.312;2023-01-28T17:19:02;4.93;;;3.60;;
15482;SDS011;7843;50.330;7.312;2023-01-28T17:21:29;5.17;;;3.30;;